createdAt,value
2024-01-11T00:01:35.100Z,103520.00
2024-01-11T00:04:01.548Z,103520.63
2024-01-11T00:06:28.098Z,103520.41
2024-01-11T00:08:54.977Z,103521.06
2024-01-11T00:11:21.458Z,103510.78
2024-01-11T00:13:47.986Z,103508.19
2024-01-11T00:16:14.491Z,103512.06
2024-01-11T00:18:41.010Z,103507.72
2024-01-11T00:21:08.910Z,103519.34
2024-01-11T00:23:35.450Z,103506.63
2024-01-11T00:26:02.006Z,103513.13
2024-01-11T00:28:28.496Z,103519.66
2024-01-11T00:30:55.295Z,103511.91
2024-01-11T00:33:21.888Z,103514.19
2024-01-11T00:35:48.677Z,103519.72
2024-01-11T00:38:15.247Z,103512.75
2024-01-11T00:40:42.035Z,103511.75
2024-01-11T00:43:08.541Z,103518.28
2024-01-11T00:45:35.040Z,103508.38
2024-01-11T00:48:01.527Z,103504.03
2024-01-11T00:50:28.429Z,103502.25
2024-01-11T00:52:55.051Z,103504.03
2024-01-11T00:55:21.499Z,103506.41
2024-01-11T00:57:48.522Z,103509.66
2024-01-11T01:00:15.292Z,103511.03
2024-01-11T01:02:42.004Z,103518.19
2024-01-11T01:05:09.470Z,103511.44
2024-01-11T01:07:36.054Z,103516.22
2024-01-11T01:10:03.076Z,103517.59
2024-01-11T01:12:29.935Z,103509.34
2024-01-11T01:14:56.759Z,103517.72
2024-01-11T01:17:23.735Z,103526.59
2024-01-11T01:19:50.782Z,103518.13
2024-01-11T01:22:17.289Z,103529.72
2024-01-11T01:24:43.827Z,103515.38
2024-01-11T01:27:13.474Z,103531.00
2024-01-11T01:29:40.100Z,103534.13
2024-01-11T01:32:06.698Z,103533.03
2024-01-11T01:34:33.324Z,103531.06
2024-01-11T01:37:00.357Z,103536.91
2024-01-11T01:39:28.039Z,103534.31
2024-01-11T01:41:54.542Z,103537.53
2024-01-11T01:44:21.128Z,103535.78
2024-01-11T01:46:49.857Z,103537.44
2024-01-11T01:49:19.461Z,103536.69
2024-01-11T01:51:46.773Z,103541.53
2024-01-11T01:54:13.469Z,103538.69
2024-01-11T01:56:40.233Z,103543.81
2024-01-11T01:59:07.563Z,103538.06
2024-01-11T02:01:35.259Z,103545.56
2024-01-11T02:04:01.945Z,103547.94
2024-01-11T02:06:31.476Z,103546.94
2024-01-11T02:09:00.065Z,103550.44
2024-01-11T02:11:27.788Z,103554.69
2024-01-11T02:13:55.005Z,103557.81
2024-01-11T02:16:21.640Z,103563.16
2024-01-11T02:18:48.452Z,103567.94
2024-01-11T02:21:16.733Z,103558.34
2024-01-11T02:24:06.888Z,103558.06
2024-01-11T02:26:34.440Z,103552.22
2024-01-11T02:29:01.616Z,103547.97
2024-01-11T02:31:28.353Z,103543.88
2024-01-11T02:33:58.414Z,103541.22
2024-01-11T02:36:26.410Z,103547.09
2024-01-11T02:38:54.405Z,103551.22
2024-01-11T02:41:22.589Z,103549.22
2024-01-11T02:43:49.904Z,103554.97
2024-01-11T02:46:17.811Z,103539.22
2024-01-11T02:48:44.545Z,103544.22
2024-01-11T02:51:11.304Z,103536.75
2024-01-11T02:53:38.038Z,103539.13
2024-01-11T02:56:05.085Z,103529.13
2024-01-11T02:58:31.763Z,103530.00
2024-01-11T03:00:58.767Z,103535.66
2024-01-11T03:03:25.305Z,103543.00
2024-01-11T03:05:51.991Z,103532.75
2024-01-11T03:08:18.763Z,103538.38
2024-01-11T03:10:47.669Z,103536.63
2024-01-11T03:13:14.286Z,103539.91
2024-01-11T03:15:40.804Z,103547.00
2024-01-11T03:18:07.514Z,103558.47
2024-01-11T03:20:34.352Z,103568.47
2024-01-11T03:23:00.946Z,103551.75
2024-01-11T03:25:27.726Z,103551.75
2024-01-11T03:27:54.239Z,103555.88
2024-01-11T03:30:21.109Z,103550.88
2024-01-11T03:32:48.035Z,103548.38
2024-01-11T03:35:14.792Z,103557.72
2024-01-11T03:37:41.391Z,103559.38
2024-01-11T03:40:08.480Z,103558.63
2024-01-11T03:42:35.037Z,103560.13
2024-01-11T03:45:01.711Z,103563.75
2024-01-11T03:47:28.279Z,103558.00
2024-01-11T03:49:55.293Z,103554.72
2024-01-11T03:52:21.963Z,103556.38
2024-01-11T03:54:48.682Z,103554.72
2024-01-11T03:57:15.658Z,103561.47
2024-01-11T03:59:42.503Z,103566.34
2024-01-11T04:02:09.185Z,103568.00
2024-01-11T04:04:35.845Z,103572.97
2024-01-11T04:07:02.476Z,103569.72
2024-01-11T04:09:30.359Z,103573.09
2024-01-11T04:11:56.878Z,103573.97
2024-01-11T04:14:23.457Z,103582.47
2024-01-11T04:16:49.986Z,103584.19
2024-01-11T04:19:22.485Z,103583.22
2024-01-11T04:21:50.369Z,103577.34
2024-01-11T04:24:16.866Z,103579.84
2024-01-11T04:26:43.355Z,103588.31
2024-01-11T04:29:11.196Z,103586.69
2024-01-11T04:31:37.862Z,103604.94
2024-01-11T04:34:04.647Z,103604.94
2024-01-11T04:36:31.236Z,103587.44
2024-01-11T04:38:59.201Z,103595.69
2024-01-11T04:41:25.700Z,103603.41
2024-01-11T04:43:52.231Z,103595.94
2024-01-11T04:46:20.869Z,103601.66
2024-01-11T04:48:50.041Z,103607.44
2024-01-11T04:51:18.202Z,103603.28
2024-01-11T04:53:46.064Z,103611.66
2024-01-11T04:56:15.143Z,103609.94
2024-01-11T04:58:43.372Z,103606.81
2024-01-11T05:01:18.904Z,103605.16
2024-01-11T05:03:47.394Z,103616.00
2024-01-11T05:06:18.229Z,103600.78
2024-01-11T05:08:46.224Z,103595.06
2024-01-11T05:11:20.270Z,103596.81
2024-01-11T05:13:49.067Z,103583.56
2024-01-11T05:16:26.474Z,103600.28
2024-01-11T05:18:55.681Z,103610.16
2024-01-11T05:21:22.657Z,103603.28
2024-01-11T05:23:50.069Z,103604.94
2024-01-11T05:26:17.751Z,103586.56
2024-01-11T05:28:44.486Z,103589.19
2024-01-11T05:31:14.893Z,103586.69
2024-01-11T05:33:42.230Z,103579.19
2024-01-11T05:36:09.251Z,103570.84
2024-01-11T05:38:36.590Z,103562.59
2024-01-11T05:41:03.548Z,103565.22
2024-01-11T05:43:30.145Z,103583.72
2024-01-11T05:45:56.721Z,103584.44
2024-01-11T05:48:23.356Z,103586.94
2024-01-11T05:50:50.108Z,103571.97
2024-01-11T05:53:18.318Z,103570.34
2024-01-11T05:55:44.941Z,103585.44
2024-01-11T05:58:11.448Z,103590.44
2024-01-11T06:00:38.171Z,103598.81
2024-01-11T06:03:05.899Z,103598.94
2024-01-11T06:05:32.557Z,103608.06
2024-01-11T06:07:59.284Z,103600.28
2024-01-11T06:10:26.150Z,103611.03
2024-01-11T06:12:52.674Z,103615.91
2024-01-11T06:15:19.406Z,103615.66
2024-01-11T06:17:46.035Z,103628.25
2024-01-11T06:20:14.108Z,103640.75
2024-01-11T06:22:42.866Z,103653.84
2024-01-11T06:25:10.860Z,103666.09
2024-01-11T06:27:37.358Z,103680.06
2024-01-11T06:30:04.624Z,103680.94
2024-01-11T06:32:31.313Z,103681.56
2024-01-11T06:34:58.011Z,103669.09
2024-01-11T06:37:24.603Z,103672.56
2024-01-11T06:39:51.237Z,103692.41
2024-01-11T06:42:19.810Z,103693.03
2024-01-11T06:44:46.510Z,103693.16
2024-01-11T06:47:13.011Z,103690.53
2024-01-11T06:49:41.106Z,103688.16
2024-01-11T06:52:07.802Z,103684.91
2024-01-11T06:54:34.516Z,103690.78
2024-01-11T06:57:01.082Z,103694.91
2024-01-11T06:59:27.853Z,103697.53
2024-01-11T07:01:54.387Z,103707.63
2024-01-11T07:04:21.646Z,103704.41
2024-01-11T07:06:48.474Z,103696.16
2024-01-11T07:09:15.703Z,103694.53
2024-01-11T07:11:42.885Z,103687.94
2024-01-11T07:14:09.549Z,103694.81
2024-01-11T07:16:36.843Z,103698.16
2024-01-11T07:19:04.489Z,103693.28
2024-01-11T07:21:32.440Z,103673.59
2024-01-11T07:24:01.939Z,103666.22
2024-01-11T07:26:28.680Z,103663.84
2024-01-11T07:28:58.326Z,103666.59
2024-01-11T07:31:25.226Z,103660.84
2024-01-11T07:33:52.085Z,103650.50
2024-01-11T07:36:18.861Z,103648.13
2024-01-11T07:38:45.589Z,103645.00
2024-01-11T07:41:13.131Z,103661.09
2024-01-11T07:43:49.101Z,103660.34
2024-01-11T07:46:26.271Z,103671.22
2024-01-11T07:49:00.634Z,103662.72
2024-01-11T07:51:28.044Z,103664.59
2024-01-11T07:53:54.738Z,103664.59
2024-01-11T07:56:21.401Z,103663.84
2024-01-11T07:58:49.833Z,103661.34
2024-01-11T08:01:17.886Z,103669.84
2024-01-11T08:03:46.479Z,103675.84
2024-01-11T08:06:13.588Z,103673.47
2024-01-11T08:08:41.370Z,103667.59
2024-01-11T08:11:13.361Z,103669.47
2024-01-11T08:13:39.945Z,103672.09
2024-01-11T08:16:10.840Z,103674.72
2024-01-11T08:18:37.560Z,103663.19
2024-01-11T08:21:07.773Z,103659.50
2024-01-11T08:23:34.356Z,103675.47
2024-01-11T08:26:00.984Z,103659.22
2024-01-11T08:28:27.451Z,103660.72
2024-01-11T08:30:54.161Z,103670.97
2024-01-11T08:33:20.821Z,103683.31
2024-01-11T08:35:47.739Z,103683.69
2024-01-11T08:38:14.375Z,103676.69
2024-01-11T08:40:41.297Z,103684.66
2024-01-11T08:43:07.968Z,103689.44
2024-01-11T08:45:34.597Z,103697.28
2024-01-11T08:48:01.822Z,103706.13
2024-01-11T08:50:29.613Z,103711.75
2024-01-11T08:52:56.929Z,103713.84
2024-01-11T08:55:23.784Z,103719.34
2024-01-11T08:57:50.190Z,103719.09
2024-01-11T09:00:19.222Z,103719.44
2024-01-11T09:02:46.904Z,103735.81
2024-01-11T09:05:15.507Z,103740.28
2024-01-11T09:07:42.014Z,103738.41
2024-01-11T09:10:12.694Z,103736.28
2024-01-11T09:12:39.889Z,103740.13
2024-01-11T09:15:07.127Z,103746.47
2024-01-11T09:17:33.948Z,103743.69
2024-01-11T09:20:01.248Z,103741.66
2024-01-11T09:22:28.909Z,103743.13
2024-01-11T09:24:55.408Z,103739.28
2024-01-11T09:27:22.327Z,103747.72
2024-01-11T09:29:51.277Z,103752.09
2024-01-11T09:32:19.719Z,103751.66
2024-01-11T09:34:46.940Z,103750.50
2024-01-11T09:37:13.487Z,103744.34
2024-01-11T09:39:40.187Z,103746.66
2024-01-11T09:42:13.279Z,103757.34
2024-01-11T09:44:40.655Z,103743.75
2024-01-11T09:47:13.830Z,103746.81
2024-01-11T09:49:49.560Z,103753.94
2024-01-11T09:52:18.212Z,103761.25
2024-01-11T09:54:44.942Z,103761.59
2024-01-11T09:57:11.505Z,103757.91
2024-01-11T09:59:38.487Z,103751.69
2024-01-11T10:02:09.431Z,103753.66
2024-01-11T10:04:36.713Z,103755.72
2024-01-11T10:07:07.179Z,103764.00
2024-01-11T10:09:34.356Z,103760.53
2024-01-11T10:12:00.914Z,103762.81
2024-01-11T10:14:27.793Z,103764.09
2024-01-11T10:16:55.862Z,103768.72
2024-01-11T10:19:23.041Z,103767.41
2024-01-11T10:21:50.117Z,103771.22
2024-01-11T10:24:21.637Z,103769.22
2024-01-11T10:26:48.271Z,103763.75
2024-01-11T10:29:15.381Z,103760.78
2024-01-11T10:31:42.262Z,103747.91
2024-01-11T10:34:09.593Z,103756.59
2024-01-11T10:36:37.230Z,103758.00
2024-01-11T10:39:08.568Z,103757.66
2024-01-11T10:41:46.465Z,103757.31
2024-01-11T10:44:22.899Z,103761.78
2024-01-11T10:46:50.833Z,103759.66
2024-01-11T10:49:21.141Z,103760.84
2024-01-11T10:51:55.810Z,103762.91
2024-01-11T10:54:24.094Z,103763.88
2024-01-11T10:57:00.455Z,103776.53
2024-01-11T10:59:28.663Z,103766.78
2024-01-11T11:01:57.395Z,103774.53
2024-01-11T11:04:24.975Z,103778.31
2024-01-11T11:07:00.034Z,103772.72
2024-01-11T11:09:28.916Z,103776.31
2024-01-11T11:12:01.488Z,103779.03
2024-01-11T11:14:29.580Z,103778.34
2024-01-11T11:16:56.308Z,103777.69
2024-01-11T11:19:23.322Z,103784.78
2024-01-11T11:21:52.145Z,103786.72
2024-01-11T11:24:19.901Z,103780.22
2024-01-11T11:26:46.568Z,103774.53
2024-01-11T11:29:13.398Z,103781.41
2024-01-11T11:31:46.837Z,103774.16
2024-01-11T11:34:14.062Z,103768.75
2024-01-11T11:36:47.731Z,103772.66
2024-01-11T11:39:14.852Z,103764.50
2024-01-11T11:41:43.721Z,103748.06
2024-01-11T11:44:14.371Z,103751.72
2024-01-11T11:46:41.412Z,103751.25
2024-01-11T11:49:08.228Z,103744.66
2024-01-11T11:51:36.098Z,103746.69
2024-01-11T11:54:03.698Z,103742.91
2024-01-11T11:56:31.848Z,103742.31
2024-01-11T11:58:59.593Z,103738.81
2024-01-11T12:01:26.464Z,103730.75
2024-01-11T12:03:53.968Z,103720.69
2024-01-11T12:06:24.802Z,103721.97
2024-01-11T12:08:57.113Z,103709.63
2024-01-11T12:11:25.061Z,103705.75
2024-01-11T12:13:53.441Z,103698.66
2024-01-11T12:16:20.481Z,103690.50
2024-01-11T12:18:47.128Z,103680.78
2024-01-11T12:21:13.788Z,103680.97
2024-01-11T12:23:41.225Z,103675.25
2024-01-11T12:26:12.839Z,103673.31
2024-01-11T12:28:41.581Z,103677.84
2024-01-11T12:31:08.654Z,103672.19
2024-01-11T12:33:36.748Z,103676.63
2024-01-11T12:36:06.897Z,103683.09
2024-01-11T12:38:35.163Z,103686.56
2024-01-11T12:41:02.185Z,103676.69
2024-01-11T12:43:28.788Z,103672.50
2024-01-11T12:45:56.215Z,103666.94
2024-01-11T12:48:23.104Z,103659.44
2024-01-11T12:50:50.075Z,103669.53
2024-01-11T12:53:20.439Z,103657.03
2024-01-11T12:56:02.827Z,103651.47
2024-01-11T12:58:29.800Z,103651.56
2024-01-11T13:00:56.669Z,103644.34
2024-01-11T13:03:24.256Z,103650.00
2024-01-11T13:05:52.659Z,103649.47
2024-01-11T13:08:21.280Z,103644.44
2024-01-11T13:10:51.061Z,103648.78
2024-01-11T13:13:17.850Z,103644.88
2024-01-11T13:15:44.797Z,103649.13
2024-01-11T13:18:11.352Z,103643.13
2024-01-11T13:20:38.341Z,103644.09
2024-01-11T13:23:20.571Z,103640.94
2024-01-11T13:25:51.330Z,103645.09
2024-01-11T13:28:19.470Z,103638.06
2024-01-11T13:30:47.156Z,103639.03
2024-01-11T13:33:13.966Z,103634.41
2024-01-11T13:35:42.336Z,103640.50
2024-01-11T13:38:09.101Z,103623.94
2024-01-11T13:40:36.186Z,103626.47
2024-01-11T13:43:04.092Z,103629.06
2024-01-11T13:45:31.046Z,103629.25
2024-01-11T13:47:58.349Z,103632.72
2024-01-11T13:50:26.212Z,103624.31
2024-01-11T13:52:54.011Z,103611.06
2024-01-11T13:55:22.927Z,103614.38
2024-01-11T13:57:51.593Z,103609.41
2024-01-11T14:00:19.994Z,103607.75
2024-01-11T14:02:48.753Z,103604.34
2024-01-11T14:05:17.235Z,103596.53
2024-01-11T14:07:45.828Z,103594.47
2024-01-11T14:10:14.258Z,103603.78
2024-01-11T14:12:41.195Z,103604.53
2024-01-11T14:15:12.901Z,103608.03
2024-01-11T14:17:40.700Z,103598.66
2024-01-11T14:20:15.913Z,103597.75
2024-01-11T14:22:48.233Z,103597.16
2024-01-11T14:25:14.915Z,103606.63
2024-01-11T14:27:42.385Z,103596.63
2024-01-11T14:30:10.875Z,103606.88
2024-01-11T14:32:39.216Z,103603.56
2024-01-11T14:35:07.288Z,103607.06
2024-01-11T14:37:39.792Z,103605.31
2024-01-11T14:40:08.227Z,103596.06
2024-01-11T14:42:34.872Z,103590.94
2024-01-11T14:45:01.678Z,103587.72
2024-01-11T14:47:28.622Z,103590.31
2024-01-11T14:49:55.601Z,103585.34
2024-01-11T14:52:22.263Z,103584.50
2024-01-11T14:54:49.133Z,103591.81
2024-01-11T14:57:16.738Z,103600.19
2024-01-11T14:59:44.672Z,103596.06
2024-01-11T15:02:11.936Z,103602.00
2024-01-11T15:04:38.584Z,103596.06
2024-01-11T15:07:05.884Z,103600.97
2024-01-11T15:09:32.798Z,103605.06
2024-01-11T15:12:01.246Z,103596.44
2024-01-11T15:14:28.255Z,103595.56
2024-01-11T15:16:54.858Z,103601.47
2024-01-11T15:19:21.715Z,103600.69
2024-01-11T15:21:50.334Z,103594.81
2024-01-11T15:24:20.538Z,103605.44
2024-01-11T15:26:49.815Z,103606.22
2024-01-11T15:29:18.410Z,103602.03
2024-01-11T15:31:46.988Z,103590.28
2024-01-11T15:34:15.273Z,103591.16
2024-01-11T15:36:42.116Z,103585.13
2024-01-11T15:39:20.443Z,103598.56
2024-01-11T15:41:55.608Z,103589.09
2024-01-11T15:44:27.659Z,103579.59
2024-01-11T15:46:54.550Z,103582.72
2024-01-11T15:49:21.293Z,103590.91
2024-01-11T15:51:47.858Z,103577.44
2024-01-11T15:54:15.150Z,103582.31
2024-01-11T15:56:42.032Z,103584.13
2024-01-11T15:59:09.176Z,103580.66
2024-01-11T16:01:46.540Z,103584.75
2024-01-11T16:04:22.383Z,103578.00
2024-01-11T16:06:48.970Z,103593.91
2024-01-11T16:09:19.297Z,103588.94
2024-01-11T16:11:49.634Z,103575.56
2024-01-11T16:14:16.627Z,103581.28
2024-01-11T16:16:43.579Z,103579.53
2024-01-11T16:19:11.054Z,103574.44
2024-01-11T16:21:37.786Z,103572.69
2024-01-11T16:24:04.573Z,103569.47
2024-01-11T16:26:31.205Z,103574.59
2024-01-11T16:28:58.247Z,103574.75
2024-01-11T16:31:28.916Z,103579.78
2024-01-11T16:33:56.096Z,103578.22
2024-01-11T16:36:22.587Z,103576.69
2024-01-11T16:38:49.389Z,103578.38
2024-01-11T16:41:16.239Z,103577.53
2024-01-11T16:43:44.618Z,103586.75
2024-01-11T16:46:21.825Z,103586.84
2024-01-11T16:48:49.459Z,103574.31
2024-01-11T16:51:15.982Z,103570.19
2024-01-11T16:53:45.713Z,103571.09
2024-01-11T16:56:12.915Z,103577.06
2024-01-11T16:58:39.461Z,103571.16
2024-01-11T17:01:06.214Z,103570.38
2024-01-11T17:03:32.863Z,103572.03
2024-01-11T17:05:59.417Z,103575.50
2024-01-11T17:08:26.253Z,103573.84
2024-01-11T17:10:53.107Z,103574.53
2024-01-11T17:13:19.679Z,103569.50
2024-01-11T17:15:46.253Z,103563.59
2024-01-11T17:18:12.801Z,103561.06
2024-01-11T17:20:39.679Z,103553.50
2024-01-11T17:23:06.356Z,103562.81
2024-01-11T17:25:32.847Z,103541.66
2024-01-11T17:27:59.341Z,103546.91
2024-01-11T17:30:26.142Z,103547.00
2024-01-11T17:32:55.137Z,103547.00
2024-01-11T17:35:23.023Z,103554.47
2024-01-11T17:37:49.512Z,103559.59
2024-01-11T17:40:16.158Z,103557.94
2024-01-11T17:42:42.655Z,103562.19
2024-01-11T17:45:11.069Z,103557.16
2024-01-11T17:47:37.669Z,103564.72
2024-01-11T17:50:04.730Z,103562.28
2024-01-11T17:52:31.200Z,103555.50
2024-01-11T17:54:57.718Z,103565.66
2024-01-11T17:57:24.252Z,103579.16
2024-01-11T17:59:51.198Z,103577.56
2024-01-11T18:02:17.830Z,103578.47
2024-01-11T18:04:44.521Z,103590.28
2024-01-11T18:07:12.132Z,103588.63
2024-01-11T18:09:38.939Z,103584.44
2024-01-11T18:12:05.810Z,103570.19
2024-01-11T18:14:32.332Z,103575.31
2024-01-11T18:16:58.763Z,103576.97
2024-01-11T18:19:25.752Z,103570.28
2024-01-11T18:21:52.280Z,103573.72
2024-01-11T18:24:19.011Z,103574.69
2024-01-11T18:26:45.776Z,103576.44
2024-01-11T18:29:12.779Z,103580.59
2024-01-11T18:31:39.711Z,103577.13
2024-01-11T18:34:06.695Z,103568.78
2024-01-11T18:36:43.850Z,103564.66
2024-01-11T18:39:10.691Z,103562.84
2024-01-11T18:41:37.172Z,103560.25
2024-01-11T18:44:03.691Z,103559.47
2024-01-11T18:46:30.213Z,103553.72
2024-01-11T18:48:56.922Z,103554.56
2024-01-11T18:51:23.484Z,103554.75
2024-01-11T18:53:50.074Z,103552.25
2024-01-11T18:56:17.011Z,103556.41
2024-01-11T18:58:43.793Z,103562.34
2024-01-11T19:01:10.717Z,103559.09
2024-01-11T19:03:39.904Z,103566.69
2024-01-11T19:06:10.166Z,103563.41
2024-01-11T19:08:37.104Z,103555.00
2024-01-11T19:11:04.366Z,103558.38
2024-01-11T19:13:30.956Z,103547.41
2024-01-11T19:15:57.531Z,103553.31
2024-01-11T19:18:24.302Z,103554.28
2024-01-11T19:20:54.974Z,103553.44
2024-01-11T19:23:26.747Z,103553.50
2024-01-11T19:25:57.081Z,103559.41
2024-01-11T19:28:24.744Z,103569.59
2024-01-11T19:30:54.266Z,103573.78
2024-01-11T19:33:20.815Z,103573.84
2024-01-11T19:35:47.595Z,103582.22
2024-01-11T19:38:14.867Z,103582.31
2024-01-11T19:40:44.610Z,103575.59
2024-01-11T19:43:11.136Z,103578.19
2024-01-11T19:45:37.731Z,103584.22
2024-01-11T19:48:04.862Z,103584.28
2024-01-11T19:50:34.164Z,103576.72
2024-01-11T19:53:01.284Z,103581.91
2024-01-11T19:55:27.813Z,103589.34
2024-01-11T19:57:54.372Z,103585.84
2024-01-11T20:00:21.045Z,103588.38
2024-01-11T20:02:47.612Z,103588.28
2024-01-11T20:05:14.435Z,103589.97
2024-01-11T20:07:40.965Z,103586.81
2024-01-11T20:10:08.294Z,103586.75
2024-01-11T20:12:35.600Z,103589.34
2024-01-11T20:15:02.246Z,103591.69
2024-01-11T20:17:29.708Z,103585.84
2024-01-11T20:19:56.810Z,103590.97
2024-01-11T20:22:23.414Z,103591.78
2024-01-11T20:24:51.866Z,103601.00
2024-01-11T20:27:18.595Z,103605.19
2024-01-11T20:29:45.200Z,103606.03
2024-01-11T20:32:11.760Z,103601.78
2024-01-11T20:34:38.426Z,103601.88
2024-01-11T20:37:05.168Z,103602.66
2024-01-11T20:39:31.958Z,103602.75
2024-01-11T20:41:58.759Z,103610.22
2024-01-11T20:44:25.468Z,103613.63
2024-01-11T20:46:52.259Z,103608.56
2024-01-11T20:49:19.444Z,103612.06
2024-01-11T20:51:46.718Z,103604.41
2024-01-11T20:54:13.772Z,103612.06
2024-01-11T20:56:44.877Z,103611.16
2024-01-11T20:59:12.684Z,103608.81
2024-01-11T21:01:39.515Z,103617.97
2024-01-11T21:04:06.225Z,103621.38
2024-01-11T21:06:33.132Z,103619.56
2024-01-11T21:09:00.571Z,103613.69
2024-01-11T21:11:27.207Z,103628.84
2024-01-11T21:13:54.142Z,103614.50
2024-01-11T21:16:20.604Z,103616.41
2024-01-11T21:18:52.271Z,103613.97
2024-01-11T21:21:23.503Z,103610.66
2024-01-11T21:23:57.622Z,103606.38
2024-01-11T21:26:25.024Z,103603.00
2024-01-11T21:28:54.528Z,103602.13
2024-01-11T21:31:26.021Z,103603.59
2024-01-11T21:33:52.888Z,103607.09
2024-01-11T21:36:23.891Z,103610.31
2024-01-11T21:38:52.225Z,103608.06
2024-01-11T21:41:18.721Z,103613.09
2024-01-11T21:43:45.333Z,103612.22
2024-01-11T21:46:11.817Z,103608.81
2024-01-11T21:48:38.473Z,103604.63
2024-01-11T21:51:05.369Z,103607.16
2024-01-11T21:53:31.978Z,103610.47
2024-01-11T21:55:58.420Z,103610.56
2024-01-11T21:58:25.900Z,103614.03
2024-01-11T22:00:54.811Z,103609.69
2024-01-11T22:03:21.542Z,103602.81
2024-01-11T22:05:48.177Z,103608.75
2024-01-11T22:08:15.983Z,103613.97
2024-01-11T22:10:43.076Z,103612.47
2024-01-11T22:13:09.911Z,103612.63
2024-01-11T22:15:37.412Z,103615.22
2024-01-11T22:18:05.291Z,103608.34
2024-01-11T22:20:32.836Z,103612.38
2024-01-11T22:23:00.247Z,103620.03
2024-01-11T22:25:27.092Z,103618.38
2024-01-11T22:27:53.971Z,103620.03
2024-01-11T22:30:20.992Z,103624.22
2024-01-11T22:32:48.904Z,103624.22
2024-01-11T22:35:15.702Z,103625.88
2024-01-11T22:37:42.124Z,103626.28
2024-01-11T22:40:09.431Z,103626.59
2024-01-11T22:42:35.923Z,103625.44
2024-01-11T22:45:03.096Z,103627.41
2024-01-11T22:47:29.692Z,103623.47
2024-01-11T22:49:56.372Z,103615.19
2024-01-11T22:52:22.852Z,103622.13
2024-01-11T22:54:49.321Z,103625.53
2024-01-11T22:57:15.984Z,103634.91
2024-01-11T22:59:42.600Z,103632.38
2024-01-11T23:02:09.315Z,103634.13
2024-01-11T23:04:35.910Z,103628.38
2024-01-11T23:07:02.428Z,103635.31
2024-01-11T23:09:29.333Z,103633.75
2024-01-11T23:11:55.845Z,103627.81
2024-01-11T23:14:24.988Z,103621.91
2024-01-11T23:16:52.104Z,103612.66
2024-01-11T23:19:19.209Z,103611.78
2024-01-11T23:21:45.819Z,103607.59
2024-01-11T23:24:12.436Z,103609.28
2024-01-11T23:26:39.791Z,103618.41
2024-01-11T23:29:06.711Z,103623.47
2024-01-11T23:31:33.285Z,103613.47
2024-01-11T23:33:59.810Z,103616.91
2024-01-11T23:36:26.270Z,103625.38
2024-01-11T23:38:53.071Z,103622.16
2024-01-11T23:41:19.767Z,103625.59
2024-01-11T23:43:46.257Z,103633.19
2024-01-11T23:46:12.734Z,103623.94
2024-01-11T23:48:39.467Z,103618.88
2024-01-11T23:51:06.690Z,103624.75
2024-01-11T23:53:33.265Z,103623.16
2024-01-11T23:55:59.903Z,103620.81
2024-01-11T23:58:26.413Z,103621.72
